Time;durP1;ratioP1;P1;durP2;ratioP2;P2;SDS_P1;SDS_P2;PMS_P1;PMS_P2;Temp;Humidity;BMP_temperature;BMP_pressure;BME280_temperature;BME280_humidity;BME280_pressure;Samples;Min_cycle;Max_cycle;Signal;HPM_P1;HPM_P2
2022/04/07 00:02:04;;;;;;;7.35;6.65;;;;;;;;;;12304488;28;20042;-78
2022/04/07 00:08:06;;;;;;;7.13;6.43;;;;;;;;;;12305011;28;20062;-79
2022/04/07 00:14:08;;;;;;;6.78;6.07;;;;;;;;;;12286248;29;20428;-78
2022/04/07 00:20:10;;;;;;;8.77;8.00;;;;;;;;;;12304512;28;20377;-79
2022/04/07 00:26:11;;;;;;;8.83;8.17;;;;;;;;;;12304689;28;20127;-79
2022/04/07 00:32:13;;;;;;;10.57;9.73;;;;;;;;;;12303765;28;20039;-79
2022/04/07 00:38:15;;;;;;;11.82;10.82;;;;;;;;;;12286840;29;20055;-79
2022/04/07 00:44:18;;;;;;;10.55;9.65;;;;;;;;;;12303184;28;20031;-79
2022/04/07 00:50:20;;;;;;;11.55;10.55;;;;;;;;;;12270071;28;20493;-80
2022/04/07 00:56:22;;;;;;;10.98;10.07;;;;;;;;;;12301731;28;20035;-78
2022/04/07 01:02:24;;;;;;;13.68;12.40;;;;;;;;;;12313510;28;20027;-78
2022/04/07 01:08:26;;;;;;;14.23;13.10;;;;;;;;;;12301278;29;20058;-78
2022/04/07 01:14:27;;;;;;;13.30;12.18;;;;;;;;;;12312306;28;20051;-77
2022/04/07 01:20:29;;;;;;;14.43;13.25;;;;;;;;;;12284683;28;20035;-78
2022/04/07 01:26:31;;;;;;;13.55;12.45;;;;;;;;;;12284506;28;20039;-78
2022/04/07 01:32:44;;;;;;;12.43;11.33;;;;;;;;;;12284292;28;20473;-78
2022/04/07 01:38:46;;;;;;;;;;;;;;;;;;12302586;28;20058;-78
2022/04/07 01:44:49;;;;;;;14.80;13.35;;;;;;;;;;12311510;28;20311;-78
2022/04/07 01:50:52;;;;;;;13.90;12.70;;;;;;;;;;12299617;28;20055;-78
2022/04/07 01:56:53;;;;;;;15.40;13.98;;;;;;;;;;12284182;28;20035;-78
2022/04/07 02:02:55;;;;;;;15.18;13.88;;;;;;;;;;12300808;28;20051;-77
2022/04/07 02:08:57;;;;;;;17.67;16.00;;;;;;;;;;12283569;29;20420;-77
2022/04/07 02:15:00;;;;;;;14.00;12.82;;;;;;;;;;12300436;28;20032;-78
2022/04/07 02:21:01;;;;;;;15.03;13.67;;;;;;;;;;12283817;28;20031;-78
2022/04/07 02:27:03;;;;;;;11.38;10.45;;;;;;;;;;12287504;28;20295;-78
2022/04/07 02:33:05;;;;;;;13.55;12.35;;;;;;;;;;12309096;28;20461;-78
2022/04/07 02:39:07;;;;;;;11.77;10.68;;;;;;;;;;12319916;28;20067;-78
2022/04/07 02:45:08;;;;;;;13.20;11.88;;;;;;;;;;12307285;28;20043;-78
2022/04/07 02:51:10;;;;;;;12.10;11.00;;;;;;;;;;12307285;28;20505;-78
2022/04/07 02:57:12;;;;;;;11.48;10.48;;;;;;;;;;12307512;28;20035;-78
2022/04/07 03:03:14;;;;;;;10.52;9.65;;;;;;;;;;12306686;28;20039;-78
2022/04/07 03:09:15;;;;;;;10.52;9.63;;;;;;;;;;12290235;28;20047;-79
2022/04/07 03:15:17;;;;;;;10.35;9.50;;;;;;;;;;12290401;28;20482;-79
2022/04/07 03:21:19;;;;;;;10.27;9.43;;;;;;;;;;12307299;28;20500;-79
2022/04/07 03:27:21;;;;;;;10.07;9.18;;;;;;;;;;12307017;28;20070;-79
2022/04/07 03:33:22;;;;;;;11.35;10.35;;;;;;;;;;12289520;29;20050;-79
2022/04/07 03:39:24;;;;;;;10.32;9.43;;;;;;;;;;12305427;28;20066;-79
2022/04/07 03:45:26;;;;;;;10.48;9.57;;;;;;;;;;12317161;28;20031;-78
2022/04/07 03:51:28;;;;;;;11.27;10.25;;;;;;;;;;12305660;28;20039;-79
2022/04/07 03:57:29;;;;;;;10.38;9.48;;;;;;;;;;12305692;28;20046;-79
2022/04/07 04:03:31;;;;;;;12.15;11.02;;;;;;;;;;12305783;28;20043;-79
2022/04/07 04:09:33;;;;;;;10.77;9.82;;;;;;;;;;12304980;28;20065;-79
2022/04/07 04:15:34;;;;;;;11.60;10.60;;;;;;;;;;12288521;28;20023;-79
2022/04/07 04:21:36;;;;;;;10.40;9.50;;;;;;;;;;12303812;28;20043;-79
2022/04/07 04:27:39;;;;;;;11.82;10.73;;;;;;;;;;12286884;28;20043;-79
2022/04/07 04:33:41;;;;;;;12.18;11.07;;;;;;;;;;12303928;28;20042;-79
2022/04/07 04:39:43;;;;;;;12.00;11.00;;;;;;;;;;12303750;28;20058;-79
2022/04/07 04:45:45;;;;;;;11.53;10.50;;;;;;;;;;12314887;28;20035;-79
2022/04/07 04:51:47;;;;;;;14.00;12.70;;;;;;;;;;12301572;28;20050;-79
2022/04/07 04:57:49;;;;;;;14.63;13.13;;;;;;;;;;12285640;28;20047;-79
2022/04/07 05:03:52;;;;;;;14.48;13.20;;;;;;;;;;12302670;28;20408;-79
2022/04/07 05:09:56;;;;;;;13.10;11.82;;;;;;;;;;12302267;28;20050;-79
2022/04/07 05:15:58;;;;;;;12.50;11.35;;;;;;;;;;12301137;28;20046;-79
2022/04/07 05:22:00;;;;;;;12.40;11.25;;;;;;;;;;12301443;28;20054;-79
2022/04/07 05:28:02;;;;;;;13.80;12.47;;;;;;;;;;12302635;28;20058;-79
2022/04/07 05:34:03;;;;;;;14.07;12.77;;;;;;;;;;12301552;28;20488;-80
2022/04/07 05:40:05;;;;;;;16.60;15.02;;;;;;;;;;12300181;28;20090;-81
2022/04/07 05:46:07;;;;;;;16.08;14.57;;;;;;;;;;12300784;28;20046;-80
2022/04/07 05:52:09;;;;;;;13.65;12.43;;;;;;;;;;12301124;28;20035;-80
2022/04/07 05:58:11;;;;;;;14.15;12.85;;;;;;;;;;12292234;28;20035;-79
2022/04/07 06:04:12;;;;;;;18.15;16.55;;;;;;;;;;12262021;29;20516;-79
2022/04/07 06:10:14;;;;;;;17.70;16.15;;;;;;;;;;12304070;28;20051;-78
2022/04/07 06:16:16;;;;;;;17.90;16.30;;;;;;;;;;12276157;29;20032;-81
2022/04/07 06:22:18;;;;;;;24.58;22.23;;;;;;;;;;12293894;28;20390;-80
2022/04/07 06:28:22;;;;;;;20.17;18.20;;;;;;;;;;12273648;29;20039;-79
2022/04/07 06:34:24;;;;;;;17.23;15.63;;;;;;;;;;12284936;28;20031;-78
2022/04/07 06:40:27;;;;;;;18.33;16.70;;;;;;;;;;12291037;28;20066;-79
2022/04/07 06:46:28;;;;;;;;;;;;;;;;;;12261739;29;20055;-79
2022/04/07 06:52:30;;;;;;;14.88;13.57;;;;;;;;;;12259659;29;19910;-79
2022/04/07 06:58:33;;;;;;;;;;;;;;;;;;12286340;29;20645;-80
2022/04/07 07:04:34;;;;;;;14.93;13.45;;;;;;;;;;12295025;29;19918;-81
2022/04/07 07:10:36;;;;;;;16.65;15.02;;;;;;;;;;12275473;28;20043;-81
2022/04/07 07:16:38;;;;;;;14.18;12.75;;;;;;;;;;12276283;29;20039;-81
2022/04/07 07:22:40;;;;;;;14.25;12.85;;;;;;;;;;12289114;29;20035;-81
2022/04/07 07:28:42;;;;;;;17.97;16.27;;;;;;;;;;12301668;28;20354;-81
2022/04/07 07:34:43;;;;;;;9.55;8.68;;;;;;;;;;12287770;29;20035;-80
2022/04/07 07:40:45;;;;;;;12.80;11.50;;;;;;;;;;12301403;29;20493;-81
2022/04/07 07:46:47;;;;;;;11.82;10.70;;;;;;;;;;12275220;29;20039;-81
2022/04/07 07:52:49;;;;;;;13.48;12.18;;;;;;;;;;12273046;29;20035;-81
2022/04/07 07:58:51;;;;;;;8.97;8.07;;;;;;;;;;12268656;28;20023;-80
2022/04/07 08:04:53;;;;;;;10.70;9.77;;;;;;;;;;12282286;28;20449;-80
2022/04/07 08:10:55;;;;;;;9.48;8.57;;;;;;;;;;12279430;29;20039;-80
2022/04/07 08:16:56;;;;;;;9.02;8.20;;;;;;;;;;12276121;29;20035;-80
2022/04/07 08:22:58;;;;;;;9.13;8.23;;;;;;;;;;12306397;28;20402;-78
2022/04/07 08:29:00;;;;;;;6.63;6.03;;;;;;;;;;12268299;29;20501;-79
2022/04/07 08:35:02;;;;;;;9.48;8.35;;;;;;;;;;12273810;29;20031;-79
2022/04/07 08:41:07;;;;;;;6.82;6.13;;;;;;;;;;12268754;29;20071;-79
2022/04/07 08:47:09;;;;;;;7.50;6.72;;;;;;;;;;12293850;28;20047;-78
2022/04/07 08:53:12;;;;;;;7.05;6.35;;;;;;;;;;12277985;28;20035;-77
2022/04/07 08:59:13;;;;;;;10.48;8.80;;;;;;;;;;12282421;29;20027;-79
2022/04/07 09:05:17;;;;;;;9.17;8.30;;;;;;;;;;12296831;28;20032;-78
2022/04/07 09:11:19;;;;;;;7.35;6.47;;;;;;;;;;12291151;29;20376;-79
2022/04/07 09:17:20;;;;;;;10.40;8.57;;;;;;;;;;12282758;28;20485;-80
2022/04/07 09:23:22;;;;;;;8.27;7.47;;;;;;;;;;12273034;28;20035;-80
2022/04/07 09:29:37;;;;;;;16.80;11.73;;;;;;;;;;12310840;28;20054;-79
2022/04/07 09:35:57;;;;;;;12.73;11.45;;;;;;;;;;12281070;28;20057;-79
2022/04/07 09:42:17;;;;;;;13.10;11.70;;;;;;;;;;12278239;29;20055;-79
2022/04/07 09:48:19;;;;;;;10.02;9.02;;;;;;;;;;12283870;28;20179;-79
2022/04/07 09:54:21;;;;;;;8.40;7.60;;;;;;;;;;12284809;28;20028;-79
2022/04/07 10:00:24;;;;;;;11.10;10.00;;;;;;;;;;12255753;28;20024;-79
2022/04/07 10:06:25;;;;;;;;;;;;;;;;;;12261860;28;20043;-78
2022/04/07 10:12:28;;;;;;;14.13;12.73;;;;;;;;;;12261966;29;19921;-79
2022/04/07 10:18:43;;;;;;;11.48;10.40;;;;;;;;;;12277858;29;20024;-79
2022/04/07 10:24:49;;;;;;;12.00;10.85;;;;;;;;;;12255660;29;20047;-79
2022/04/07 10:30:52;;;;;;;11.85;10.60;;;;;;;;;;12271131;29;20681;-79
2022/04/07 10:37:01;;;;;;;11.32;10.25;;;;;;;;;;12271429;29;20047;-80
2022/04/07 10:43:10;;;;;;;8.85;7.90;;;;;;;;;;12236622;29;20079;-79
2022/04/07 10:49:13;;;;;;;10.50;9.50;;;;;;;;;;12270879;29;20433;-79
2022/04/07 10:55:14;;;;;;;;;;;;;;;;;;12299056;28;20033;-79
2022/04/07 11:01:31;;;;;;;8.05;7.25;;;;;;;;;;12285037;29;19911;-79
2022/04/07 11:07:52;;;;;;;8.35;7.55;;;;;;;;;;12283036;29;20047;-79
2022/04/07 11:13:59;;;;;;;9.07;7.55;;;;;;;;;;12273333;28;20401;-79
2022/04/07 11:20:19;;;;;;;10.02;8.98;;;;;;;;;;12296259;28;20469;-79
2022/04/07 11:26:28;;;;;;;10.82;9.82;;;;;;;;;;12278840;29;20048;-79
2022/04/07 11:32:30;;;;;;;12.10;10.85;;;;;;;;;;12283571;28;20050;-79
2022/04/07 11:38:33;;;;;;;8.23;7.43;;;;;;;;;;12269512;29;20062;-80
2022/04/07 11:44:35;;;;;;;11.48;10.48;;;;;;;;;;12284017;28;20035;-79
2022/04/07 11:50:38;;;;;;;10.07;9.17;;;;;;;;;;12270171;28;20515;-80
2022/04/07 11:56:40;;;;;;;9.68;8.10;;;;;;;;;;12258345;29;20043;-80
2022/04/07 12:02:43;;;;;;;8.37;7.33;;;;;;;;;;12261523;29;20470;-80
2022/04/07 12:08:44;;;;;;;9.55;8.30;;;;;;;;;;12276316;28;20400;-82
2022/04/07 12:14:46;;;;;;;6.40;5.73;;;;;;;;;;12298220;28;20042;-82
2022/04/07 12:20:58;;;;;;;11.00;9.90;;;;;;;;;;12281861;28;20031;-80
2022/04/07 12:26:59;;;;;;;10.47;9.37;;;;;;;;;;12292862;28;20514;-79
2022/04/07 12:33:01;;;;;;;10.73;9.43;;;;;;;;;;12250302;28;20034;-79
2022/04/07 12:39:10;;;;;;;10.95;9.88;;;;;;;;;;12282401;28;20071;-79
2022/04/07 12:45:12;;;;;;;19.95;18.05;;;;;;;;;;12267884;29;20047;-79
2022/04/07 12:51:23;;;;;;;10.13;9.13;;;;;;;;;;12275416;29;20043;-79
2022/04/07 12:57:35;;;;;;;12.00;10.80;;;;;;;;;;12262946;29;20046;-80
2022/04/07 13:03:54;;;;;;;8.53;7.63;;;;;;;;;;12289849;28;20047;-80
2022/04/07 13:09:56;;;;;;;13.10;11.73;;;;;;;;;;12281967;28;20306;-80
2022/04/07 13:15:57;;;;;;;8.05;7.32;;;;;;;;;;12271406;28;20042;-80
2022/04/07 13:22:03;;;;;;;12.47;11.27;;;;;;;;;;12291269;28;20477;-81
2022/04/07 13:28:04;;;;;;;20.02;18.10;;;;;;;;;;12276138;28;20047;-81
2022/04/07 13:34:07;;;;;;;12.75;11.48;;;;;;;;;;12275419;29;20058;-81
2022/04/07 13:40:09;;;;;;;19.58;17.75;;;;;;;;;;12267042;29;20050;-81
2022/04/07 13:46:11;;;;;;;23.00;20.65;;;;;;;;;;12269014;29;20028;-77
2022/04/07 13:52:13;;;;;;;18.03;16.17;;;;;;;;;;12271991;29;20035;-78
2022/04/07 13:58:15;;;;;;;19.88;16.13;;;;;;;;;;12252531;29;20028;-77
2022/04/07 14:04:17;;;;;;;18.45;16.50;;;;;;;;;;12269343;28;20054;-77
2022/04/07 14:10:18;;;;;;;18.37;16.50;;;;;;;;;;12260608;29;20425;-76
2022/04/07 14:16:21;;;;;;;15.77;14.23;;;;;;;;;;12249413;29;20043;-75
2022/04/07 14:22:22;;;;;;;16.13;13.52;;;;;;;;;;12239000;29;20032;-76
2022/04/07 14:28:24;;;;;;;11.93;10.60;;;;;;;;;;12275117;28;20059;-76
2022/04/07 14:34:26;;;;;;;15.00;13.50;;;;;;;;;;12244743;29;20032;-76
2022/04/07 14:40:28;;;;;;;11.00;9.73;;;;;;;;;;12262496;29;20051;-76
2022/04/07 14:46:29;;;;;;;14.15;12.60;;;;;;;;;;12261087;29;20035;-76
2022/04/07 14:52:31;;;;;;;15.07;13.50;;;;;;;;;;12260754;29;20046;-76
2022/04/07 14:58:33;;;;;;;10.38;9.38;;;;;;;;;;12260755;29;20031;-77
2022/04/07 15:04:35;;;;;;;11.40;10.23;;;;;;;;;;12257144;29;20054;-76
2022/04/07 15:10:37;;;;;;;18.57;16.70;;;;;;;;;;12260762;29;20059;-76
2022/04/07 15:16:39;;;;;;;15.75;14.07;;;;;;;;;;12259991;29;20649;-76
2022/04/07 15:22:42;;;;;;;19.75;17.65;;;;;;;;;;12260380;29;20046;-76
2022/04/07 15:28:44;;;;;;;16.42;14.70;;;;;;;;;;12263472;29;20043;-76
2022/04/07 15:34:46;;;;;;;14.20;12.17;;;;;;;;;;12266588;28;20040;-76
2022/04/07 15:40:48;;;;;;;20.80;16.83;;;;;;;;;;12241955;29;20067;-75
2022/04/07 15:46:50;;;;;;;15.50;12.98;;;;;;;;;;12258520;29;20047;-76
2022/04/07 15:52:52;;;;;;;17.00;15.17;;;;;;;;;;12241388;29;20039;-76
2022/04/07 15:58:54;;;;;;;12.47;10.77;;;;;;;;;;12257788;29;20038;-76
2022/04/07 16:04:55;;;;;;;15.70;13.90;;;;;;;;;;12256405;29;20039;-76
2022/04/07 16:10:57;;;;;;;13.60;12.17;;;;;;;;;;12257467;29;20498;-76
2022/04/07 16:16:59;;;;;;;14.33;12.83;;;;;;;;;;12239723;29;20497;-76
2022/04/07 16:23:01;;;;;;;22.87;19.20;;;;;;;;;;12258885;29;20454;-76
2022/04/07 16:29:03;;;;;;;12.87;10.77;;;;;;;;;;12256914;29;20048;-77
2022/04/07 16:35:06;;;;;;;8.75;7.68;;;;;;;;;;12271547;29;20496;-76
2022/04/07 16:41:07;;;;;;;9.02;8.13;;;;;;;;;;12256442;29;20054;-77
2022/04/07 16:47:10;;;;;;;7.63;5.85;;;;;;;;;;12238313;29;20055;-76
2022/04/07 16:53:11;;;;;;;10.38;9.38;;;;;;;;;;12255633;29;20501;-77
2022/04/07 16:59:13;;;;;;;9.27;8.37;;;;;;;;;;12254581;29;20051;-79
2022/04/07 17:05:16;;;;;;;7.97;7.10;;;;;;;;;;12238978;29;20044;-78
2022/04/07 17:11:19;;;;;;;;;;;;;;;;;;12238694;29;20047;-78
2022/04/07 17:17:21;;;;;;;9.68;8.75;;;;;;;;;;12254671;29;19915;-78
2022/04/07 17:23:23;;;;;;;9.20;8.27;;;;;;;;;;12243982;29;20046;-78
2022/04/07 17:29:24;;;;;;;7.47;6.77;;;;;;;;;;12246181;29;20055;-78
2022/04/07 17:35:26;;;;;;;14.02;10.05;;;;;;;;;;12255000;29;20047;-79
2022/04/07 17:41:28;;;;;;;7.70;6.97;;;;;;;;;;12236685;29;20052;-78
2022/04/07 17:47:29;;;;;;;13.38;12.07;;;;;;;;;;12236507;29;20051;-78
2022/04/07 17:53:31;;;;;;;9.50;8.45;;;;;;;;;;12253444;29;20397;-78
2022/04/07 17:59:33;;;;;;;9.03;8.10;;;;;;;;;;12252409;29;20040;-79
2022/04/07 18:05:35;;;;;;;15.57;12.23;;;;;;;;;;12254090;29;20385;-79
2022/04/07 18:11:36;;;;;;;11.57;10.03;;;;;;;;;;12236193;29;20051;-79
2022/04/07 18:17:38;;;;;;;15.48;12.32;;;;;;;;;;12250611;29;20035;-80
2022/04/07 18:23:40;;;;;;;11.87;10.30;;;;;;;;;;12235350;29;20054;-79
2022/04/07 18:29:42;;;;;;;14.55;12.85;;;;;;;;;;12252388;29;20378;-80
2022/04/07 18:35:44;;;;;;;9.30;8.30;;;;;;;;;;12253276;29;20047;-84
2022/04/07 18:41:45;;;;;;;13.82;12.25;;;;;;;;;;12252751;29;20291;-79
2022/04/07 18:47:48;;;;;;;16.23;13.30;;;;;;;;;;12251904;29;20058;-84
2022/04/07 18:53:50;;;;;;;17.23;15.48;;;;;;;;;;12234676;29;20043;-78
2022/04/07 18:59:51;;;;;;;13.68;12.20;;;;;;;;;;12234794;29;20485;-78
2022/04/07 19:05:53;;;;;;;13.70;12.23;;;;;;;;;;12268689;29;20046;-78
2022/04/07 19:11:55;;;;;;;14.40;12.35;;;;;;;;;;12242967;29;20052;-79
2022/04/07 19:17:56;;;;;;;17.10;15.02;;;;;;;;;;12268816;29;20039;-78
2022/04/07 19:23:58;;;;;;;15.63;14.03;;;;;;;;;;12242454;29;20042;-77
2022/04/07 19:30:00;;;;;;;11.43;10.23;;;;;;;;;;12242184;29;20520;-77
2022/04/07 19:36:02;;;;;;;13.32;11.63;;;;;;;;;;12242602;29;20039;-78
2022/04/07 19:42:05;;;;;;;16.58;14.27;;;;;;;;;;12258476;29;20059;-77
2022/04/07 19:48:07;;;;;;;14.80;12.80;;;;;;;;;;12241423;29;20075;-77
2022/04/07 19:54:08;;;;;;;15.70;12.07;;;;;;;;;;12258569;29;20398;-78
2022/04/07 20:00:10;;;;;;;14.82;13.23;;;;;;;;;;12259052;29;20039;-76
2022/04/07 20:06:15;;;;;;;11.20;10.10;;;;;;;;;;12272371;29;20039;-77
2022/04/07 20:12:17;;;;;;;13.30;12.00;;;;;;;;;;12240101;29;20051;-77
2022/04/07 20:18:18;;;;;;;14.00;12.37;;;;;;;;;;12256431;29;20039;-77
2022/04/07 20:24:20;;;;;;;12.05;10.25;;;;;;;;;;12257921;29;20035;-75
2022/04/07 20:30:24;;;;;;;13.35;11.23;;;;;;;;;;12251597;29;20039;-77
2022/04/07 20:36:30;;;;;;;9.80;8.77;;;;;;;;;;12239422;29;20039;-77
2022/04/07 20:42:31;;;;;;;10.93;9.68;;;;;;;;;;12239329;29;20401;-80
2022/04/07 20:48:33;;;;;;;10.35;9.35;;;;;;;;;;12256215;29;20493;-76
2022/04/07 20:54:36;;;;;;;10.93;9.77;;;;;;;;;;12239219;29;20031;-85
2022/04/07 21:00:37;;;;;;;;;;;;;;;;;;12239252;29;20038;-83
2022/04/07 21:06:39;;;;;;;10.73;9.48;;;;;;;;;;12270103;29;19914;-81
2022/04/07 21:12:45;;;;;;;11.23;10.03;;;;;;;;;;12254517;29;20048;-81
2022/04/07 21:18:47;;;;;;;12.38;11.00;;;;;;;;;;12267361;29;20048;-80
2022/04/07 21:24:49;;;;;;;9.18;8.38;;;;;;;;;;12254295;29;20409;-81
2022/04/07 21:30:50;;;;;;;11.50;10.40;;;;;;;;;;12236726;29;20054;-81
2022/04/07 21:36:52;;;;;;;11.52;10.20;;;;;;;;;;12252960;29;20042;-81
2022/04/07 21:42:54;;;;;;;10.07;9.15;;;;;;;;;;12251757;29;20051;-81
2022/04/07 21:48:55;;;;;;;11.85;9.38;;;;;;;;;;12251171;29;20059;-81
2022/04/07 21:54:57;;;;;;;9.32;8.43;;;;;;;;;;12251464;29;20521;-81
2022/04/07 22:00:59;;;;;;;8.07;7.28;;;;;;;;;;12233875;29;20040;-81
2022/04/07 22:07:01;;;;;;;8.65;7.75;;;;;;;;;;12252867;29;20366;-81
2022/04/07 22:13:06;;;;;;;9.63;8.67;;;;;;;;;;12246854;29;20050;-81
2022/04/07 22:19:08;;;;;;;9.43;8.43;;;;;;;;;;12250333;29;20050;-81
2022/04/07 22:25:10;;;;;;;11.10;9.13;;;;;;;;;;12233364;29;20024;-81
2022/04/07 22:31:11;;;;;;;9.52;8.63;;;;;;;;;;12250298;29;20043;-81
2022/04/07 22:37:13;;;;;;;10.55;9.52;;;;;;;;;;12253452;29;20044;-81
2022/04/07 22:43:15;;;;;;;10.98;9.43;;;;;;;;;;12239042;29;20032;-81
2022/04/07 22:49:17;;;;;;;11.15;10.00;;;;;;;;;;12263907;29;20044;-80
2022/04/07 22:55:19;;;;;;;11.98;10.77;;;;;;;;;;12253126;29;20441;-81
2022/04/07 23:01:21;;;;;;;14.13;12.73;;;;;;;;;;12260821;29;20439;-81
2022/04/07 23:07:23;;;;;;;13.68;12.27;;;;;;;;;;12243917;29;20397;-81
2022/04/07 23:13:24;;;;;;;12.50;11.23;;;;;;;;;;12260355;29;20398;-81
2022/04/07 23:19:26;;;;;;;12.35;10.60;;;;;;;;;;12255229;28;20512;-81
2022/04/07 23:25:28;;;;;;;11.38;10.25;;;;;;;;;;12242998;29;20043;-81
2022/04/07 23:31:30;;;;;;;12.60;11.38;;;;;;;;;;12259421;29;20481;-81
2022/04/07 23:37:31;;;;;;;12.57;11.38;;;;;;;;;;12260433;29;20046;-81
2022/04/07 23:43:36;;;;;;;11.75;10.45;;;;;;;;;;12258617;29;20039;-81
2022/04/07 23:49:38;;;;;;;11.88;10.68;;;;;;;;;;12242144;29;20067;-81
2022/04/07 23:55:39;;;;;;;12.80;11.50;;;;;;;;;;12257418;29;20113;-80
